Time;durP1;ratioP1;P1;durP2;ratioP2;P2;SDS_P1;SDS_P2;PMS_P1;PMS_P2;Temp;Humidity;BMP_temperature;BMP_pressure;BME280_temperature;BME280_humidity;BME280_pressure;Samples;Min_cycle;Max_cycle;Signal;HPM_P1;HPM_P2
2022/01/05 00:01:39;;;;;;;10.55;7.78;;;;;;;4.29;92.24;98545.86;1632968;86;20182;-66
2022/01/05 00:04:05;;;;;;;11.12;7.83;;;;;;;4.21;92.79;98534.95;1639639;86;21017;-67
2022/01/05 00:06:33;;;;;;;12.97;8.87;;;;;;;4.22;92.97;98533.95;1634316;86;21588;-65
2022/01/05 00:09:00;;;;;;;11.33;8.38;;;;;;;4.25;92.97;98532.75;1621077;86;21036;-65
2022/01/05 00:11:26;;;;;;;12.68;8.93;;;;;;;4.25;93.12;98535.38;1635142;85;21101;-67
2022/01/05 00:13:52;;;;;;;8.58;7.62;;;;;;;4.22;93.30;98537.91;1630572;86;21030;-65
2022/01/05 00:16:18;;;;;;;11.05;8.43;;;;;;;4.25;93.27;98523.52;1634005;86;21098;-65
2022/01/05 00:18:44;;;;;;;9.93;6.65;;;;;;;4.28;93.28;98524.46;1614011;87;21114;-65
2022/01/05 00:21:10;;;;;;;14.70;7.95;;;;;;;4.24;93.58;98525.34;1626372;86;21054;-65
2022/01/05 00:23:36;;;;;;;8.65;6.55;;;;;;;4.31;93.37;98519.30;1641069;85;21530;-63
2022/01/05 00:26:04;;;;;;;12.25;8.28;;;;;;;4.27;93.56;98524.94;1649137;85;21083;-63
2022/01/05 00:28:31;;;;;;;7.57;6.50;;;;;;;4.33;93.46;98503.58;1602328;88;21208;-66
2022/01/05 00:30:58;;;;;;;10.38;7.62;;;;;;;4.32;93.54;98500.64;1646700;85;21087;-64
2022/01/05 00:33:24;;;;;;;9.15;6.85;;;;;;;4.35;93.55;98493.67;1650813;85;21194;-65
2022/01/05 00:35:49;;;;;;;7.90;6.50;;;;;;;4.41;93.33;98486.30;1660480;85;21102;-66
2022/01/05 00:38:16;;;;;;;13.05;7.58;;;;;;;4.43;93.32;98484.28;1654127;85;21916;-65
2022/01/05 00:40:41;;;;;;;7.67;6.62;;;;;;;4.44;93.29;98479.30;1612481;88;21060;-64
2022/01/05 00:43:08;;;;;;;8.20;6.28;;;;;;;4.39;93.37;98479.09;1650426;85;21088;-63
2022/01/05 00:45:35;;;;;;;9.73;7.50;;;;;;;4.41;93.32;98473.11;1650857;85;21006;-66
2022/01/05 00:48:01;;;;;;;12.53;7.72;;;;;;;4.39;93.54;98470.34;1652096;85;21049;-64
2022/01/05 00:50:27;;;;;;;10.25;7.40;;;;;;;4.42;93.54;98467.32;1648705;85;21065;-65
2022/01/05 00:52:59;;;;;;;11.33;7.83;;;;;;;4.46;93.50;98469.87;1631595;85;21602;-65
2022/01/05 00:55:21;;;;;;;10.63;8.17;;;;;;;4.47;93.53;98470.20;1632411;85;21066;-64
2022/01/05 00:57:48;;;;;;;;;;;;;;;4.52;93.45;98459.05;1666010;84;21113;-64
2022/01/05 01:00:14;;;;;;;11.13;7.80;;;;;;;4.56;93.46;98465.55;1625215;86;20493;-66
2022/01/05 01:02:41;;;;;;;7.20;6.47;;;;;;;4.56;93.53;98455.84;1642986;85;21040;-65
2022/01/05 01:05:08;;;;;;;10.18;7.45;;;;;;;4.56;93.62;98457.16;1648079;85;21068;-62
2022/01/05 01:07:34;;;;;;;9.17;7.20;;;;;;;4.56;93.60;98445.28;1648983;85;21606;-64
2022/01/05 01:10:00;;;;;;;7.72;6.70;;;;;;;4.58;93.69;98441.14;1653768;85;21056;-64
2022/01/05 01:12:26;;;;;;;7.45;6.53;;;;;;;4.62;93.71;98442.37;1630859;87;21613;-65
2022/01/05 01:14:53;;;;;;;10.28;6.72;;;;;;;4.65;93.71;98452.03;1623320;87;21145;-66
2022/01/05 01:17:19;;;;;;;6.92;5.62;;;;;;;4.58;93.69;98427.43;1647355;85;21100;-65
2022/01/05 01:19:45;;;;;;;8.35;7.15;;;;;;;4.67;93.66;98423.61;1647789;85;21068;-70
2022/01/05 01:22:11;;;;;;;7.70;6.20;;;;;;;4.75;93.47;98423.95;1642755;85;21004;-63
2022/01/05 01:24:37;;;;;;;7.78;6.05;;;;;;;4.76;93.44;98426.07;1618868;87;21077;-63
2022/01/05 01:27:04;;;;;;;8.15;6.65;;;;;;;4.77;93.36;98421.92;1610281;87;21070;-64
2022/01/05 01:29:31;;;;;;;11.07;6.33;;;;;;;4.84;93.18;98422.77;1619139;87;21139;-63
2022/01/05 01:31:57;;;;;;;9.33;6.30;;;;;;;4.85;93.31;98420.92;1618265;87;21036;-64
2022/01/05 01:34:23;;;;;;;8.03;5.85;;;;;;;4.86;93.16;98410.17;1641885;85;21284;-65
2022/01/05 01:36:49;;;;;;;8.83;6.80;;;;;;;4.91;92.98;98404.28;1663290;85;22180;-66
2022/01/05 01:39:15;;;;;;;7.70;6.90;;;;;;;4.93;92.94;98400.94;1673589;84;21707;-65
2022/01/05 01:41:41;;;;;;;6.45;5.80;;;;;;;4.92;92.97;98390.60;1675555;84;21030;-65
2022/01/05 01:44:08;;;;;;;;;;;;;;;4.91;92.96;98379.20;1648197;86;21054;-65
2022/01/05 01:46:34;;;;;;;8.47;5.97;;;;;;;4.96;92.76;98379.94;1640807;86;20123;-64
2022/01/05 01:49:00;;;;;;;9.23;6.47;;;;;;;4.94;92.84;98372.73;1640632;86;21065;-65
2022/01/05 01:51:26;;;;;;;8.93;6.28;;;;;;;4.99;92.74;98372.44;1642988;86;21129;-65
2022/01/05 01:53:53;;;;;;;10.32;6.92;;;;;;;4.98;92.68;98366.84;1642329;86;20998;-64
2022/01/05 01:56:20;;;;;;;;;;;;;;;5.02;92.56;98368.57;1622468;86;21615;-63
2022/01/05 01:58:48;;;;;;;8.50;5.95;;;;;;;5.05;92.50;98356.30;1637994;86;20155;-65
2022/01/05 02:01:18;;;;;;;7.97;5.93;;;;;;;5.06;92.51;98353.95;1640770;86;21052;-64
2022/01/05 02:03:44;;;;;;;7.80;5.97;;;;;;;5.03;92.62;98349.89;1642442;86;21564;-64
2022/01/05 02:06:11;;;;;;;;;;;;;;;5.12;92.39;98345.73;1634101;86;21065;-65
2022/01/05 02:08:37;;;;;;;7.57;6.03;;;;;;;5.16;92.29;98347.78;1624965;86;20129;-65
2022/01/05 02:11:06;;;;;;;6.95;6.03;;;;;;;5.13;92.26;98353.45;1631112;86;21068;-66
2022/01/05 02:13:33;;;;;;;7.63;5.47;;;;;;;5.19;92.22;98345.23;1627613;86;21627;-63
2022/01/05 02:16:00;;;;;;;7.10;5.77;;;;;;;5.25;92.05;98334.69;1630317;86;21051;-63
2022/01/05 02:21:03;;;;;;;8.15;5.67;;;;;;;5.36;91.71;98324.51;1614287;87;21509;-63
2022/01/05 02:23:29;;;;;;;6.70;6.05;;;;;;;5.38;91.34;98326.44;1625487;86;21467;-65
2022/01/05 02:25:55;;;;;;;7.62;6.37;;;;;;;5.38;91.12;98327.76;1622793;87;21111;-66
2022/01/05 02:28:22;;;;;;;9.13;6.20;;;;;;;5.39;91.10;98328.08;1650823;85;21043;-65
2022/01/05 02:30:52;;;;;;;7.10;6.13;;;;;;;5.40;90.86;98327.04;1653358;85;21451;-64
2022/01/05 02:33:20;;;;;;;9.37;6.03;;;;;;;5.41;90.80;98324.72;1648291;85;21092;-64
2022/01/05 02:35:47;;;;;;;7.30;6.00;;;;;;;5.43;90.78;98329.28;1651995;86;21037;-65
2022/01/05 02:38:20;;;;;;;10.05;5.42;;;;;;;5.45;90.67;98317.48;1657051;86;21032;-66
2022/01/05 02:40:51;;;;;;;7.00;6.30;;;;;;;5.45;90.53;98311.39;1656193;86;21036;-65
2022/01/05 02:43:18;;;;;;;8.40;6.47;;;;;;;5.48;90.48;98303.04;1641385;86;21065;-65
2022/01/05 02:45:44;;;;;;;11.73;6.72;;;;;;;5.52;90.31;98298.99;1638052;86;20966;-65
2022/01/05 02:48:10;;;;;;;6.33;5.67;;;;;;;5.54;90.19;98304.05;1619967;87;21071;-67
2022/01/05 02:50:36;;;;;;;8.73;5.83;;;;;;;5.55;90.28;98296.44;1634943;86;21002;-66
2022/01/05 02:53:03;;;;;;;6.58;5.85;;;;;;;5.58;90.10;98303.97;1620162;87;21041;-65
2022/01/05 02:55:31;;;;;;;6.27;5.27;;;;;;;5.56;89.98;98286.98;1599009;88;21023;-66
2022/01/05 02:57:58;;;;;;;7.35;6.03;;;;;;;5.55;89.83;98295.92;1608633;87;20996;-66
2022/01/05 03:00:24;;;;;;;7.25;6.53;;;;;;;5.59;89.61;98297.12;1643789;86;21032;-66
2022/01/05 03:02:50;;;;;;;6.85;5.58;;;;;;;5.63;89.58;98306.30;1600430;88;21719;-65
2022/01/05 03:05:19;;;;;;;6.87;5.17;;;;;;;5.65;89.56;98296.81;1634711;86;21050;-65
2022/01/05 03:07:46;;;;;;;6.87;6.17;;;;;;;5.66;89.47;98305.86;1653566;85;21622;-68
2022/01/05 03:10:14;;;;;;;6.15;5.53;;;;;;;5.69;89.33;98303.83;1612442;87;21525;-66
2022/01/05 03:12:42;;;;;;;6.47;5.77;;;;;;;5.71;89.12;98296.50;1633705;86;21111;-66
2022/01/05 03:15:09;;;;;;;7.17;5.30;;;;;;;5.71;89.02;98300.46;1655497;85;20972;-65
2022/01/05 03:17:38;;;;;;;8.03;6.10;;;;;;;5.70;88.81;98288.28;1654589;85;20982;-64
2022/01/05 03:20:07;;;;;;;8.63;6.07;;;;;;;5.72;88.76;98304.74;1607697;87;21164;-63
2022/01/05 03:22:34;;;;;;;6.60;5.90;;;;;;;5.76;88.59;98296.17;1645240;85;22282;-65
2022/01/05 03:25:00;;;;;;;6.97;6.28;;;;;;;5.77;88.53;98297.02;1657411;85;20996;-64
2022/01/05 03:27:27;;;;;;;7.03;5.83;;;;;;;5.80;88.41;98296.58;1651986;85;21567;-67
2022/01/05 03:29:54;;;;;;;7.30;6.07;;;;;;;5.42;88.27;98225.41;1651382;85;21029;-68
2022/01/05 03:32:20;;;;;;;;;;;;;;;5.84;88.19;98291.20;1650310;85;21539;-64
2022/01/05 03:34:50;;;;;;;6.07;5.57;;;;;;;5.89;88.03;98294.53;1646953;84;20161;-64
2022/01/05 03:37:15;;;;;;;8.73;5.67;;;;;;;5.89;87.92;98292.70;1642614;85;21014;-64
2022/01/05 03:39:41;;;;;;;9.68;7.22;;;;;;;5.91;87.62;98283.23;1650169;85;21613;-65
2022/01/05 03:42:08;;;;;;;7.97;7.17;;;;;;;5.98;87.65;98289.35;1647642;85;21042;-64
2022/01/05 03:44:35;;;;;;;8.67;6.57;;;;;;;6.01;87.37;98291.07;1647358;85;21241;-63
2022/01/05 03:47:01;;;;;;;;;;;;;;;6.04;86.97;98297.77;1654841;85;21032;-64
2022/01/05 03:49:28;;;;;;;7.80;6.50;;;;;;;6.10;86.94;98296.12;1634841;86;20112;-65
2022/01/05 03:51:54;;;;;;;8.70;6.05;;;;;;;6.04;86.81;98289.31;1615312;87;21038;-65
2022/01/05 03:54:20;;;;;;;8.95;6.90;;;;;;;6.09;86.95;98301.92;1609279;87;21520;-66
2022/01/05 03:56:46;;;;;;;9.40;7.55;;;;;;;6.14;86.76;98286.73;1649190;85;21624;-67
2022/01/05 03:59:13;;;;;;;7.25;6.28;;;;;;;6.15;86.48;98287.05;1635672;86;21034;-74
2022/01/05 04:01:39;;;;;;;8.15;5.95;;;;;;;6.19;86.38;98289.05;1641553;86;20972;-63
2022/01/05 04:04:05;;;;;;;9.75;6.87;;;;;;;6.23;86.29;98277.05;1640258;86;21516;-65
2022/01/05 04:06:32;;;;;;;8.37;6.87;;;;;;;6.21;85.92;98275.62;1638262;86;21037;-63
2022/01/05 04:08:58;;;;;;;11.08;7.95;;;;;;;6.23;85.86;98262.99;1627247;86;20990;-62
2022/01/05 04:11:26;;;;;;;6.40;5.77;;;;;;;6.30;85.84;98278.33;1611325;86;21049;-63
2022/01/05 04:13:53;;;;;;;7.30;6.07;;;;;;;6.36;85.58;98268.22;1639996;86;21057;-64
2022/01/05 04:16:19;;;;;;;7.22;6.37;;;;;;;6.40;85.40;98256.20;1608040;88;21055;-61
2022/01/05 04:18:45;;;;;;;9.15;7.58;;;;;;;6.40;84.99;98252.73;1632191;87;21086;-63
2022/01/05 04:21:11;;;;;;;7.80;7.00;;;;;;;6.40;85.26;98258.85;1643592;86;21085;-62
2022/01/05 04:23:37;;;;;;;10.45;7.22;;;;;;;6.42;85.40;98255.97;1651517;84;20999;-64
2022/01/05 04:26:03;;;;;;;11.03;7.50;;;;;;;6.46;85.24;98256.36;1640084;86;21170;-64
2022/01/05 04:28:29;;;;;;;11.28;7.10;;;;;;;6.49;85.13;98266.02;1640060;86;21028;-62
2022/01/05 04:30:55;;;;;;;8.55;7.67;;;;;;;6.51;85.28;98256.55;1641207;86;21160;-63
2022/01/05 04:33:21;;;;;;;11.75;7.83;;;;;;;6.52;85.09;98260.83;1636195;86;21703;-65
2022/01/05 04:35:48;;;;;;;9.98;6.72;;;;;;;6.52;85.09;98260.83;1637952;86;21071;-61
2022/01/05 04:38:14;;;;;;;8.20;6.58;;;;;;;6.54;85.23;98258.77;1639486;86;21113;-63
2022/01/05 04:40:40;;;;;;;7.08;6.37;;;;;;;6.56;85.25;98268.63;1636525;86;21093;-66
2022/01/05 04:43:06;;;;;;;10.25;6.60;;;;;;;6.60;85.16;98277.25;1637539;86;22184;-66
2022/01/05 04:45:32;;;;;;;10.65;6.40;;;;;;;6.63;84.87;98283.97;1635363;86;21029;-62
2022/01/05 04:47:58;;;;;;;7.92;6.50;;;;;;;6.66;84.74;98277.42;1635928;86;21371;-63
2022/01/05 04:50:24;;;;;;;8.78;6.60;;;;;;;6.66;84.53;98294.11;1651699;85;21633;-63
2022/01/05 04:52:51;;;;;;;9.30;6.67;;;;;;;6.69;84.67;98279.14;1642184;86;21053;-74
2022/01/05 04:55:17;;;;;;;;;;;;;;;6.62;85.20;98263.80;1652438;85;21010;-62
2022/01/05 04:57:43;;;;;;;7.73;6.90;;;;;;;6.71;85.43;98277.61;1614090;87;20199;-62
2022/01/05 05:00:11;;;;;;;10.85;6.10;;;;;;;6.64;86.13;98280.28;1651789;85;21101;-63
2022/01/05 05:02:38;;;;;;;7.23;5.87;;;;;;;6.62;86.68;98270.42;1656946;85;21844;-64
2022/01/05 05:05:04;;;;;;;8.98;5.62;;;;;;;6.60;87.07;98271.15;1653851;85;21090;-63
2022/01/05 05:07:30;;;;;;;6.80;5.20;;;;;;;6.60;87.25;98267.17;1647450;85;21142;-63
2022/01/05 05:09:58;;;;;;;7.75;6.10;;;;;;;6.56;87.50;98265.98;1645189;85;21114;-61
2022/01/05 05:12:24;;;;;;;7.40;6.30;;;;;;;6.59;87.42;98266.86;1644235;85;21163;-62
2022/01/05 05:14:50;;;;;;;7.42;4.70;;;;;;;6.62;87.42;98252.69;1649796;85;21332;-62
2022/01/05 05:17:18;;;;;;;9.27;6.17;;;;;;;6.70;87.26;98267.50;1651941;85;21023;-65
2022/01/05 05:19:44;;;;;;;8.55;6.17;;;;;;;6.76;86.99;98268.00;1652115;85;21079;-63
2022/01/05 05:22:10;;;;;;;9.58;7.00;;;;;;;6.81;86.36;98263.37;1648560;85;21096;-63
2022/01/05 05:24:36;;;;;;;7.55;6.22;;;;;;;6.88;85.81;98260.69;1678543;84;21094;-63
2022/01/05 05:27:03;;;;;;;6.28;5.62;;;;;;;6.96;85.67;98257.76;1676618;84;20943;-63
2022/01/05 05:29:29;;;;;;;8.63;6.27;;;;;;;6.99;84.86;98273.23;1671783;84;21035;-72
2022/01/05 05:31:56;;;;;;;6.28;5.50;;;;;;;7.07;84.57;98267.66;1672665;84;21116;-63
2022/01/05 05:34:22;;;;;;;6.83;5.95;;;;;;;7.10;83.79;98274.34;1676379;84;21015;-62
2022/01/05 05:36:50;;;;;;;7.67;5.13;;;;;;;7.15;83.60;98271.87;1659279;85;21142;-62
2022/01/05 05:39:16;;;;;;;6.62;4.95;;;;;;;7.18;83.25;98268.80;1658263;85;21098;-65
2022/01/05 05:41:42;;;;;;;6.15;5.50;;;;;;;7.26;82.63;98288.91;1677574;84;21939;-62
2022/01/05 05:44:08;;;;;;;5.70;4.70;;;;;;;7.26;82.63;98288.91;1678949;83;21080;-63
2022/01/05 05:46:35;;;;;;;6.92;4.85;;;;;;;7.30;82.14;98292.74;1671809;84;21113;-62
2022/01/05 05:49:02;;;;;;;5.30;4.80;;;;;;;7.34;81.80;98303.20;1655818;86;21167;-64
2022/01/05 05:51:28;;;;;;;6.20;4.80;;;;;;;7.39;81.48;98296.74;1657449;85;20988;-61
2022/01/05 05:53:55;;;;;;;6.00;5.17;;;;;;;7.43;81.22;98303.75;1644601;86;21107;-64
2022/01/05 05:56:21;;;;;;;7.60;4.80;;;;;;;7.39;80.99;98301.52;1643153;85;21103;-63
2022/01/05 05:58:48;;;;;;;5.10;4.60;;;;;;;7.49;80.68;98310.30;1626584;86;21011;-62
2022/01/05 06:01:14;;;;;;;5.33;4.07;;;;;;;7.55;80.42;98313.92;1587018;89;21060;-61
2022/01/05 06:03:41;;;;;;;;;;;;;;;7.58;80.12;98312.97;1618668;87;21045;-60
2022/01/05 06:06:09;;;;;;;4.27;3.87;;;;;;;7.67;79.92;98309.53;1634049;86;20424;-62
2022/01/05 06:08:35;;;;;;;4.20;3.85;;;;;;;7.68;79.77;98308.48;1616773;86;21115;-60
2022/01/05 06:11:01;;;;;;;4.92;4.03;;;;;;;7.74;79.37;98314.27;1629467;86;21476;-59
2022/01/05 06:13:28;;;;;;;3.95;3.65;;;;;;;7.84;79.28;98328.86;1629931;86;21011;-60
2022/01/05 06:15:54;;;;;;;4.30;3.90;;;;;;;7.89;78.84;98323.69;1606695;87;21626;-65
2022/01/05 06:18:22;;;;;;;5.10;3.87;;;;;;;7.94;78.33;98324.65;1620692;87;21097;-61
2022/01/05 06:20:50;;;;;;;4.73;4.17;;;;;;;7.95;78.30;98331.59;1627739;86;21146;-62
2022/01/05 06:23:16;;;;;;;4.12;3.75;;;;;;;7.99;78.14;98327.45;1650664;84;21042;-67
2022/01/05 06:25:42;;;;;;;4.12;3.75;;;;;;;8.08;77.75;98321.84;1665940;85;21030;-71
2022/01/05 06:28:11;;;;;;;4.22;3.80;;;;;;;8.15;77.55;98318.08;1648689;85;21068;-70
2022/01/05 06:30:39;;;;;;;5.63;3.27;;;;;;;8.23;77.25;98333.42;1663423;85;21106;-70
2022/01/05 06:33:05;;;;;;;4.83;4.37;;;;;;;8.28;77.18;98345.52;1651504;85;21095;-61
2022/01/05 06:35:31;;;;;;;5.35;4.35;;;;;;;8.31;77.27;98331.28;1628786;86;21113;-70
2022/01/05 06:37:58;;;;;;;5.10;4.22;;;;;;;8.30;77.10;98338.94;1620731;86;21081;-74
2022/01/05 06:40:27;;;;;;;4.70;3.90;;;;;;;8.31;77.12;98343.75;1612515;87;21029;-64
2022/01/05 06:42:54;;;;;;;5.20;3.73;;;;;;;8.38;76.99;98344.47;1618553;87;21559;-63
2022/01/05 06:45:22;;;;;;;3.80;3.50;;;;;;;8.45;76.97;98347.08;1580126;89;21030;-64
2022/01/05 06:48:49;;;;;;;5.83;3.60;;;;;;;8.60;76.76;98338.20;1799372;77;22986;-64
2022/01/05 06:51:17;;;;;;;3.50;3.30;;;;;;;8.58;76.84;98347.72;1780725;78;21045;-63
2022/01/05 06:53:43;;;;;;;3.95;3.55;;;;;;;8.60;76.71;98354.14;1763828;78;21009;-65
2022/01/05 06:56:09;;;;;;;4.53;4.12;;;;;;;8.66;76.41;98354.56;1760514;78;20998;-63
2022/01/05 06:58:35;;;;;;;4.35;4.05;;;;;;;8.76;76.63;98360.16;1736489;81;21596;-63
2022/01/05 07:01:01;;;;;;;4.72;3.80;;;;;;;8.86;75.84;98366.26;1722938;81;21119;-63
2022/01/05 07:03:27;;;;;;;4.53;4.08;;;;;;;8.93;75.32;98355.55;1715863;82;21015;-64
2022/01/05 07:05:54;;;;;;;3.12;2.92;;;;;;;8.99;75.30;98355.97;1705492;82;21037;-63
2022/01/05 07:08:20;;;;;;;4.80;4.30;;;;;;;9.04;75.38;98372.05;1714093;82;22001;-65
2022/01/05 07:10:47;;;;;;;5.43;3.37;;;;;;;9.06;75.55;98363.33;1716711;82;21057;-67
2022/01/05 07:13:13;;;;;;;3.92;3.47;;;;;;;9.10;75.56;98357.85;1741507;81;21042;-63
2022/01/05 07:15:39;;;;;;;3.22;3.02;;;;;;;9.20;75.31;98370.58;1734774;81;21038;-64
2022/01/05 07:18:06;;;;;;;4.70;3.40;;;;;;;9.32;75.29;98371.93;1737305;81;21077;-64
2022/01/05 07:20:32;;;;;;;4.15;3.40;;;;;;;9.43;75.11;98375.66;1742477;81;21021;-63
2022/01/05 07:22:58;;;;;;;4.17;3.77;;;;;;;9.51;74.55;98384.13;1746254;81;21011;-64
2022/01/05 07:25:24;;;;;;;4.05;3.75;;;;;;;9.53;74.81;98388.69;1732790;81;21499;-65
2022/01/05 07:27:50;;;;;;;4.03;2.80;;;;;;;9.62;74.39;98398.98;1740518;81;21100;-64
2022/01/05 07:30:16;;;;;;;4.28;3.67;;;;;;;9.71;73.76;98409.05;1737297;82;21078;-64
2022/01/05 07:32:42;;;;;;;4.50;4.00;;;;;;;9.78;73.69;98391.66;1743865;81;20978;-64
2022/01/05 07:35:09;;;;;;;4.42;3.92;;;;;;;9.80;73.18;98407.41;1722390;82;21017;-63
2022/01/05 07:37:36;;;;;;;4.27;3.50;;;;;;;9.80;72.90;98407.41;1719765;82;21129;-63
2022/01/05 07:40:05;;;;;;;3.83;3.53;;;;;;;9.79;73.46;98411.89;1713041;82;21065;-64
2022/01/05 07:42:34;;;;;;;3.40;3.10;;;;;;;9.80;73.11;98409.53;1713976;82;21039;-64
2022/01/05 07:45:03;;;;;;;4.97;4.43;;;;;;;9.80;73.17;98394.90;1707367;82;21102;-63
2022/01/05 07:47:31;;;;;;;4.20;3.90;;;;;;;9.82;73.28;98406.65;1698222;84;21088;-63
2022/01/05 07:49:57;;;;;;;3.80;3.30;;;;;;;9.83;73.41;98404.27;1699135;84;21023;-63
2022/01/05 07:52:24;;;;;;;3.57;3.27;;;;;;;9.83;73.30;98413.08;1698235;83;21092;-63
2022/01/05 07:54:52;;;;;;;5.50;3.77;;;;;;;9.78;73.58;98412.95;1697350;83;21025;-64
2022/01/05 07:57:20;;;;;;;3.93;3.03;;;;;;;9.75;73.74;98410.73;1725325;81;21074;-63
2022/01/05 07:59:47;;;;;;;6.30;3.60;;;;;;;9.74;73.85;98417.11;1721300;81;21611;-67
2022/01/05 08:02:13;;;;;;;;;;;;;;;9.79;73.74;98417.74;1721496;82;21501;-64
2022/01/05 08:04:40;;;;;;;3.80;3.20;;;;;;;9.82;73.71;98412.77;1713519;82;20511;-66
2022/01/05 08:07:06;;;;;;;4.30;3.87;;;;;;;9.84;73.84;98416.02;1704453;82;21375;-64
2022/01/05 08:09:32;;;;;;;4.47;3.42;;;;;;;9.89;73.64;98425.45;1724607;82;20966;-64
2022/01/05 08:11:59;;;;;;;3.40;3.17;;;;;;;9.90;73.64;98444.36;1715481;82;21037;-65
2022/01/05 08:14:25;;;;;;;4.07;3.70;;;;;;;9.91;73.67;98452.64;1699584;83;20990;-63
2022/01/05 08:16:51;;;;;;;3.33;3.08;;;;;;;9.92;73.71;98460.09;1698624;83;21099;-68
2022/01/05 08:19:17;;;;;;;4.35;3.95;;;;;;;9.94;73.38;98464.17;1693866;83;21119;-67
2022/01/05 08:21:44;;;;;;;3.87;3.57;;;;;;;9.99;73.25;98469.31;1701369;83;21100;-68
2022/01/05 08:24:11;;;;;;;3.85;3.55;;;;;;;10.05;73.11;98474.52;1690534;83;21053;-68
2022/01/05 08:26:37;;;;;;;4.63;4.23;;;;;;;10.09;72.94;98470.88;1694362;83;21061;-68
2022/01/05 08:29:05;;;;;;;4.03;3.67;;;;;;;10.10;72.30;98467.19;1690486;83;21022;-68
2022/01/05 08:31:31;;;;;;;4.72;3.67;;;;;;;9.71;72.49;98418.36;1662913;83;21555;-69
2022/01/05 08:33:59;;;;;;;;;;;;;;;10.05;72.83;98479.03;1660632;84;21474;-68
2022/01/05 08:36:26;;;;;;;4.10;3.80;;;;;;;10.03;72.75;98475.80;1652472;85;20180;-68
2022/01/05 08:38:52;;;;;;;4.93;4.27;;;;;;;10.03;72.84;98473.94;1649146;85;21025;-67
2022/01/05 08:41:19;;;;;;;5.90;4.70;;;;;;;10.10;72.87;98480.49;1646166;85;21040;-68
2022/01/05 08:43:46;;;;;;;7.27;5.90;;;;;;;10.14;72.96;98470.47;1644336;84;21006;-69
2022/01/05 08:46:12;;;;;;;5.87;5.07;;;;;;;10.18;72.97;98477.48;1645874;84;21243;-69
2022/01/05 08:48:40;;;;;;;;;;;;;;;10.21;72.49;98473.03;1637804;85;21677;-69
2022/01/05 08:51:06;;;;;;;;;;;;;;;10.28;72.68;98465.75;1626661;86;20219;-67
2022/01/05 08:53:33;;;;;;;4.65;4.08;;;;;;;10.39;72.60;98465.45;1603068;87;20210;-67
2022/01/05 08:55:59;;;;;;;5.10;4.50;;;;;;;10.48;72.00;98464.59;1677446;82;21068;-69
2022/01/05 08:58:26;;;;;;;4.50;4.10;;;;;;;10.50;71.75;98461.97;1688766;83;21132;-70
2022/01/05 09:00:52;;;;;;;4.97;4.67;;;;;;;10.52;71.71;98468.41;1684103;83;21088;-70
2022/01/05 09:03:19;;;;;;;5.90;5.40;;;;;;;10.50;71.66;98467.83;1657742;84;21139;-70
2022/01/05 09:05:46;;;;;;;6.53;5.33;;;;;;;10.49;71.88;98468.36;1661001;84;21615;-70
2022/01/05 09:08:13;;;;;;;4.60;4.20;;;;;;;10.53;71.47;98463.38;1678085;84;21116;-68
2022/01/05 09:10:41;;;;;;;5.53;5.03;;;;;;;10.49;71.10;98464.86;1677490;84;21844;-69
2022/01/05 09:13:09;;;;;;;5.00;4.50;;;;;;;10.46;71.35;98450.17;1675044;82;21131;-68
2022/01/05 09:15:37;;;;;;;6.00;5.30;;;;;;;10.45;71.85;98459.72;1662406;84;21112;-68
2022/01/05 09:18:03;;;;;;;5.80;5.20;;;;;;;10.47;71.68;98470.95;1663263;84;21014;-69
2022/01/05 09:20:29;;;;;;;4.42;4.12;;;;;;;10.56;71.75;98476.21;1668269;84;21911;-69
2022/01/05 09:22:56;;;;;;;5.75;4.90;;;;;;;10.68;71.52;98474.36;1690958;83;21031;-68
2022/01/05 09:25:23;;;;;;;6.60;5.60;;;;;;;10.77;71.11;98474.78;1695692;83;21511;-68
2022/01/05 09:27:51;;;;;;;6.23;5.63;;;;;;;10.81;70.42;98472.45;1680360;83;20996;-68
2022/01/05 09:30:20;;;;;;;5.73;5.23;;;;;;;10.81;70.90;98484.45;1671518;83;21004;-70
2022/01/05 09:32:47;;;;;;;4.50;4.07;;;;;;;10.84;70.11;98481.33;1687954;83;21000;-69
2022/01/05 09:35:16;;;;;;;5.12;4.72;;;;;;;10.89;69.90;98477.44;1668384;84;21053;-68
2022/01/05 09:37:53;;;;;;;4.87;4.47;;;;;;;10.95;69.83;98491.16;1676739;84;21040;-68
2022/01/05 09:43:05;;;;;;;6.20;4.43;;;;;;;10.87;69.73;98497.66;1656490;84;21076;-68
2022/01/05 09:45:35;;;;;;;8.37;5.90;;;;;;;10.83;69.73;98491.69;1683652;82;21002;-68
2022/01/05 09:48:20;;;;;;;6.50;5.65;;;;;;;10.86;69.80;98502.69;1662520;84;21111;-68
2022/01/05 09:50:54;;;;;;;6.43;5.83;;;;;;;10.88;69.76;98507.27;1661307;84;21507;-68
2022/01/05 09:53:23;;;;;;;5.97;5.53;;;;;;;10.86;69.70;98511.22;1647642;84;21073;-67
2022/01/05 09:55:51;;;;;;;5.93;5.20;;;;;;;10.81;69.48;98519.09;1660422;82;21102;-67
2022/01/05 09:58:22;;;;;;;6.17;5.57;;;;;;;10.73;69.66;98520.27;1656844;84;21032;-67
2022/01/05 10:00:51;;;;;;;7.07;6.37;;;;;;;10.65;69.84;98514.78;1667317;83;21121;-69
2022/01/05 10:03:18;;;;;;;6.83;6.23;;;;;;;10.63;70.02;98518.20;1688927;83;21030;-68
2022/01/05 10:05:45;;;;;;;6.77;6.17;;;;;;;10.59;70.24;98528.23;1686139;83;21079;-69
2022/01/05 10:08:12;;;;;;;8.25;6.60;;;;;;;10.59;70.33;98530.37;1694132;83;21522;-69
2022/01/05 10:10:40;;;;;;;;;;;;;;;10.61;70.31;98532.28;1693473;83;20982;-67
2022/01/05 10:13:06;;;;;;;6.47;5.87;;;;;;;10.61;70.16;98540.27;1672052;83;20166;-67
2022/01/05 10:15:34;;;;;;;7.92;6.20;;;;;;;10.58;69.77;98542.05;1673346;83;21094;-68
2022/01/05 10:18:17;;;;;;;5.50;5.10;;;;;;;10.62;69.70;98545.87;1669117;83;21006;-68
2022/01/05 10:20:57;;;;;;;5.93;5.43;;;;;;;10.67;69.60;98557.19;1671856;83;21050;-69
2022/01/05 10:23:45;;;;;;;5.40;5.00;;;;;;;10.63;69.01;98552.03;1682381;83;21122;-70
2022/01/05 10:26:27;;;;;;;5.28;4.80;;;;;;;10.57;68.88;98553.77;1686437;83;21029;-69
2022/01/05 10:29:07;;;;;;;7.97;5.60;;;;;;;10.52;69.23;98547.80;1687847;83;21176;-69
2022/01/05 10:31:38;;;;;;;5.00;4.60;;;;;;;10.50;69.43;98557.06;1685158;83;21533;-69
2022/01/05 10:34:26;;;;;;;5.50;5.10;;;;;;;10.52;69.02;98550.98;1668766;83;21037;-69
2022/01/05 10:36:57;;;;;;;5.97;5.43;;;;;;;10.58;69.01;98554.58;1659193;85;21052;-69
2022/01/05 10:39:42;;;;;;;6.97;6.30;;;;;;;10.61;68.79;98548.80;1659403;85;21137;-68
2022/01/05 10:42:13;;;;;;;6.70;6.10;;;;;;;10.67;68.69;98540.66;1661083;84;21061;-69
2022/01/05 10:44:41;;;;;;;6.57;5.97;;;;;;;10.66;67.91;98548.89;1652326;83;21131;-68
2022/01/05 10:47:08;;;;;;;8.73;7.63;;;;;;;10.62;68.08;98553.86;1676851;84;21101;-67
2022/01/05 10:49:38;;;;;;;6.90;6.20;;;;;;;10.59;68.35;98550.35;1670055;84;21252;-68
2022/01/05 10:52:28;;;;;;;6.80;6.20;;;;;;;10.60;68.35;98541.83;1656779;84;20977;-68
2022/01/05 10:55:11;;;;;;;6.83;5.73;;;;;;;10.61;68.32;98539.47;1651000;84;21021;-69
2022/01/05 10:57:39;;;;;;;5.80;4.93;;;;;;;10.66;68.10;98535.56;1645913;84;21614;-68
2022/01/05 11:00:08;;;;;;;5.40;4.90;;;;;;;10.65;68.03;98540.63;1623572;86;21579;-69
2022/01/05 11:02:36;;;;;;;6.23;5.70;;;;;;;10.56;67.72;98536.69;1699653;82;21989;-68
2022/01/05 11:05:13;;;;;;;7.75;5.75;;;;;;;10.50;68.10;98542.41;1703737;82;21116;-71
2022/01/05 11:07:42;;;;;;;7.67;6.42;;;;;;;10.48;68.33;98547.17;1705904;82;21044;-70
2022/01/05 11:10:18;;;;;;;6.53;5.93;;;;;;;10.49;68.23;98558.09;1697270;82;21028;-69
2022/01/05 11:12:52;;;;;;;6.78;5.62;;;;;;;10.57;68.44;98551.11;1694460;82;21030;-67
2022/01/05 11:15:27;;;;;;;6.93;6.23;;;;;;;10.64;68.77;98551.81;1682549;83;21587;-69
2022/01/05 11:18:17;;;;;;;6.73;5.77;;;;;;;10.71;68.70;98551.67;1682079;83;21073;-69
2022/01/05 11:21:03;;;;;;;5.07;4.57;;;;;;;10.77;67.84;98553.93;1681757;83;21115;-69
2022/01/05 11:23:33;;;;;;;4.47;3.93;;;;;;;10.79;67.36;98562.50;1677656;84;21093;-70
2022/01/05 11:26:02;;;;;;;3.30;3.10;;;;;;;10.81;66.84;98568.41;1674324;84;21041;-69
2022/01/05 11:28:31;;;;;;;4.17;3.77;;;;;;;10.87;66.42;98574.16;1662357;84;21031;-70
2022/01/05 11:30:58;;;;;;;4.63;4.10;;;;;;;10.90;66.10;98569.14;1673205;84;21458;-70
2022/01/05 11:33:25;;;;;;;4.20;3.80;;;;;;;10.92;65.90;98580.91;1667208;83;21033;-70
2022/01/05 11:35:53;;;;;;;4.63;4.13;;;;;;;10.92;65.52;98575.58;1704552;83;20993;-69
2022/01/05 11:38:20;;;;;;;4.90;4.40;;;;;;;10.87;65.45;98584.29;1688117;83;21012;-70
2022/01/05 11:40:55;;;;;;;5.53;5.10;;;;;;;10.86;65.54;98586.65;1708030;83;21064;-70
2022/01/05 11:43:30;;;;;;;4.73;4.33;;;;;;;10.83;64.94;98587.14;1678688;83;21013;-68
2022/01/05 11:45:58;;;;;;;5.80;5.30;;;;;;;10.81;65.15;98593.72;1687136;82;21150;-71
2022/01/05 11:48:40;;;;;;;5.60;4.30;;;;;;;10.78;65.29;98595.54;1664783;84;21154;-70
2022/01/05 11:51:04;;;;;;;7.23;4.73;;;;;;;10.78;65.33;98588.88;1686312;83;21101;-70